37.3°F
Current conditions from King Hill
Updated every 5 minutes
 
  Sunday May 3, 2026

Observations for Westford

Westford

44° 37' 38"N, 73° 02' 30"W, Elevation 850 ft.
Eastern Time

Hourly observations for the last 72 hours

Date Time Temperature (°F) Humi-
dity

(%)
Wind
(mph)
Pressure Rain (in) Sun
(W/m2)
UV ET
(in)
Air Dew 6 Hour 1 Hr 3 Hr 6 Hr Day
Alt
(in)
Sea
Level

(mb)
Max Min
3 21:00 38.2 28.6 68 S 1 G 4 29.74 1007.0 0.00 0 0.0 0.075
3 20:00 45.2 30.9 50.0 45.2 57 Calm 29.73 1006.7 0.00 0 0.0 0.074
3 19:00 47.8 31.0 52 S 0 G 5 29.72 1006.5 0.00 49 0.0 0.072
3 18:00 49.0 30.2 48 WNW 1 G 4 29.72 1006.6 0.00 118 0.0 0.068
3 17:00 48.7 29.9 48 WNW 1 G 6 29.72 1006.5 0.00 183 0.0 0.063
3 16:00 47.5 29.3 49 WSW 6 G 13 29.73 1006.9 0.00 257 0.0 0.058
3 15:00 48.8 32.4 53 W 3 G 13 29.74 1007.3 0.00 582 0.0 0.050
3 14:00 46.9 31.6 48.6 39.8 55 W 5 G 11 29.76 1007.8 0.00 239 0.0 0.044
3 13:00 46.5 30.8 54 W 5 G 13 29.76 1007.9 0.00 380 0.0 0.036
3 12:00 45.7 31.3 57 W 8 G 15 29.78 1008.6 0.00 269 0.0 0.027
3 11:00 48.2 35.8 62 NW 2 G 12 29.79 1008.8 0.00 244 0.0 0.016
3 10:00 47.2 37.9 70 WNW 1 G 9 29.80 1009.2 0.00 844 0.0 0.008
3 09:00 43.5 38.4 82 W 5 G 8 29.81 1009.5 0.00 645 0.0 0.003
3 08:00 39.8 36.0 39.8 35.9 86 W 2 G 9 29.82 1009.7 0.00 165 0.0 0.001
3 07:00 37.0 34.3 90 Calm 29.81 1009.4 0.00 65 0.0 0.000
3 06:00 36.0 33.6 91 Calm 29.80 1009.3 0.00 9 0.0 0.000
3 05:00 36.5 34.1 91 Calm 29.81 1009.4 0.00 0 0.0 0.000
3 04:00 36.7 34.3 91 Calm 29.82 1009.8 0.00 0 0.0 0.000
3 03:00 36.9 34.8 92 Calm 29.82 1009.8 0.00 0 0.0 0.000
3 02:00 37.1 34.7 40.0 37.0 91 Calm 29.83 1010.1 0.03 0.00 0 0.0 0.000
3 01:00 37.3 34.9 91 Calm 29.84 1010.6 0.00 0 0.0 0.000
3 00:00 37.9 35.2 90 Calm 29.85 1011.0 0.11 0 0.0 0.042
2 23:00 37.9 35.0 89 Calm 29.86 1011.3 0.03 0.11 0 0.0 0.042
2 22:00 38.4 35.4 89 WSW 0 G 7 29.87 1011.7 0.02 0.11 0 0.0 0.042
2 21:00 39.4 36.4 89 W 0 G 4 29.87 1011.6 0.01 0.09 0 0.0 0.042
2 20:00 40.0 36.4 49.1 40.0 87 Calm 29.85 1011.0 0.01 0.01 0.01 0.08 0 0.0 0.042
2 19:00 41.0 37.4 87 W 0 G 4 29.85 1010.8 0.07 21 0.0 0.041
2 18:00 41.7 36.9 83 W 0 G 6 29.84 1010.5 0.07 33 0.0 0.040
2 17:00 42.1 37.9 85 W 6 G 9 29.84 1010.5 0.07 167 0.0 0.037
2 16:00 44.2 38.4 80 WSW 3 G 11 29.83 1010.2 0.07 111 0.0 0.034
2 15:00 45.1 39.3 80 WSW 4 G 14 29.83 1010.1 0.07 232 0.0 0.028
2 14:00 48.1 37.7 48.3 39.5 67 WSW 0 G 8 29.82 1009.9 0.03 0.07 262 0.0 0.021
2 13:00 46.2 41.0 82 WSW 2 G 6 29.83 1010.0 0.07 434 0.0 0.013
2 12:00 42.4 38.8 87 W 0 G 6 29.84 1010.6 0.07 283 0.0 0.010
2 11:00 41.0 37.4 87 W 3 G 7 29.85 1010.8 0.03 0.07 109 0.0 0.007
2 10:00 40.6 37.3 88 N 1 G 3 29.85 1010.9 0.01 0.07 137 0.0 0.005
2 09:00 39.9 36.6 88 Calm 29.85 1011.0 0.02 0.06 81 0.0 0.004
2 08:00 39.6 36.6 41.1 38.3 89 Calm 29.85 1011.0 0.01 0.03 0.04 0.04 67 0.0 0.003
2 07:00 38.4 35.4 89 Calm 29.85 1010.7 0.01 0.03 26 0.0 0.003
2 06:00 38.7 35.5 88 Calm 29.83 1010.4 0.01 0.02 0 0.0 0.003
2 05:00 39.3 35.2 85 Calm 29.84 1010.7 0.01 0.01 0.01 0 0.0 0.003
2 04:00 40.6 34.6 79 SSE 0 G 6 29.84 1010.7 0.00 0 0.0 0.002
2 03:00 40.7 33.1 74 Calm 29.83 1010.4 0.00 0 0.0 0.002
2 02:00 39.9 33.6 47.1 39.7 78 Calm 29.84 1010.4 0.00 0 0.0 0.001
2 01:00 39.7 31.8 73 Calm 29.84 1010.4 0.00 0 0.0 0.000
2 00:00 41.5 33.2 72 Calm 29.83 1010.3 0.00 0 0.0 0.127
1 23:00 40.3 32.0 72 Calm 29.84 1010.5 0.00 0 0.0 0.126
1 22:00 41.9 32.1 68 Calm 29.84 1010.6 0.00 0 0.0 0.125
1 21:00 44.0 33.0 65 Calm 29.83 1010.3 0.00 0 0.0 0.125
1 20:00 47.1 32.2 55.0 47.1 56 N 0 G 2 29.82 1009.9 0.00 0 0.0 0.124
1 19:00 50.0 30.0 46 N 0 G 4 29.81 1009.5 0.00 44 0.0 0.121
1 18:00 54.8 32.2 42 NNW 2 G 9 29.81 1009.4 0.00 288 0.0 0.113
1 17:00 54.1 31.5 42 N 3 G 11 29.81 1009.3 0.00 568 0.0 0.104
1 16:00 52.2 30.4 43 NNE 6 G 12 29.81 1009.5 0.00 357 0.0 0.093
1 15:00 51.9 31.8 46 WNW 3 G 8 29.82 1009.7 0.00 316 0.0 0.080
1 14:00 52.7 32.0 53.2 39.6 45 WSW 3 G 12 29.82 1009.8 0.00 889 0.0 0.062
1 13:00 50.4 33.0 51 WNW 5 G 14 29.83 1010.1 0.00 893 0.0 0.045
1 12:00 47.7 31.4 53 WNW 3 G 12 29.84 1010.6 0.00 847 0.0 0.030
1 11:00 46.3 36.3 68 W 4 G 14 29.84 1010.7 0.00 823 0.0 0.018
1 10:00 44.4 33.8 66 WNW 4 G 10 29.85 1010.8 0.00 243 0.0 0.009
1 09:00 42.1 31.9 67 W 5 G 11 29.84 1010.5 0.00 98 0.0 0.004
1 08:00 39.6 34.6 40.5 35.7 82 W 2 G 9 29.84 1010.6 0.00 121 0.0 0.002
1 07:00 37.2 33.4 86 W 2 G 8 29.83 1010.3 0.00 51 0.0 0.001
1 06:00 35.9 32.4 87 W 1 G 7 29.81 1009.6 0.00 7 0.0 0.001
1 05:00 38.0 34.2 86 W 0 G 8 29.80 1009.1 0.00 0 0.0 0.001
1 04:00 38.0 34.5 87 W 0 G 3 29.80 1009.0 0.00 0 0.0 0.001
1 03:00 37.7 33.6 85 W 0 G 4 29.79 1008.8 0.00 0 0.0 0.001
1 02:00 40.4 35.7 43.0 40.4 83 W 4 G 11 29.78 1008.5 0.00 0 0.0 0.000
1 01:00 40.6 36.7 86 W 4 G 8 29.78 1008.6 0.00 0 0.0 0.000
1 00:00 41.4 37.2 85 W 0 G 6 29.78 1008.4 0.22 0 0.0 0.030
30 23:00 41.6 37.7 86 WNW 0 G 8 29.78 1008.7 0.22 0 0.0 0.030
30 22:00 42.6 37.5 82 W 1 G 6 29.78 1008.5 0.22 0 0.0 0.030

Data generated by WxSolution Version 1.9.1.9, Build 2022.03.27.


 
 
Current Radar Loop:

Sun Position

Copyright © WestfordWeather.net 2007-2026. All rights reserved.